createdAt,value
2019-03-06T00:01:13.124Z,95.80
2019-03-06T00:03:46.916Z,96.10
2019-03-06T00:06:21.214Z,96.10
2019-03-06T00:08:54.079Z,96.10
2019-03-06T00:11:27.293Z,96.10
2019-03-06T00:14:00.075Z,96.10
2019-03-06T00:16:32.913Z,96.00
2019-03-06T00:19:05.811Z,96.20
2019-03-06T00:21:38.905Z,96.00
2019-03-06T00:24:11.880Z,96.10
2019-03-06T00:26:45.085Z,96.00
2019-03-06T00:29:18.216Z,96.10
2019-03-06T00:31:51.373Z,96.20
2019-03-06T00:34:24.583Z,96.30
2019-03-06T00:36:57.450Z,96.50
2019-03-06T00:39:37.934Z,96.70
2019-03-06T00:42:10.899Z,96.90
2019-03-06T00:44:44.059Z,97.10
2019-03-06T00:47:16.936Z,97.50
2019-03-06T00:49:50.088Z,97.70
2019-03-06T00:52:22.929Z,97.90
2019-03-06T00:54:55.725Z,98.10
2019-03-06T00:57:28.599Z,98.30
2019-03-06T01:00:01.694Z,98.40
2019-03-06T01:02:36.218Z,98.60
2019-03-06T01:05:09.125Z,98.60
2019-03-06T01:07:44.811Z,98.70
2019-03-06T01:10:19.006Z,98.90
2019-03-06T01:12:51.855Z,99.10
2019-03-06T01:15:24.837Z,99.10
2019-03-06T01:17:57.922Z,99.10
2019-03-06T01:20:30.826Z,99.30
2019-03-06T01:23:03.819Z,99.40
2019-03-06T01:25:37.251Z,99.40
2019-03-06T01:28:10.036Z,99.50
2019-03-06T01:30:42.854Z,99.70
2019-03-06T01:33:25.849Z,99.70
2019-03-06T01:36:04.932Z,99.90
2019-03-06T01:38:58.301Z,99.90
2019-03-06T01:41:38.151Z,99.90
2019-03-06T01:44:29.515Z,99.90
2019-03-06T01:47:02.425Z,99.90
2019-03-06T01:49:35.425Z,99.90
2019-03-06T01:52:08.296Z,99.90
2019-03-06T01:54:41.360Z,99.90
2019-03-06T01:57:14.303Z,99.90
2019-03-06T01:59:47.309Z,99.90
2019-03-06T02:02:20.077Z,99.90
2019-03-06T02:04:52.917Z,99.90
2019-03-06T02:07:25.891Z,99.90
2019-03-06T02:09:59.009Z,99.90
2019-03-06T02:12:31.919Z,99.90
2019-03-06T02:15:05.995Z,99.90
2019-03-06T02:17:38.929Z,99.90
2019-03-06T02:20:14.425Z,99.90
2019-03-06T02:22:48.353Z,99.90
2019-03-06T02:25:21.349Z,99.90
2019-03-06T02:27:54.155Z,99.90
2019-03-06T02:30:27.142Z,99.90
2019-03-06T02:32:59.995Z,99.90
2019-03-06T02:35:33.040Z,99.90
2019-03-06T02:38:05.804Z,99.90
2019-03-06T02:40:38.772Z,99.90
2019-03-06T02:43:11.568Z,99.90
2019-03-06T02:45:44.447Z,99.90
2019-03-06T02:48:17.179Z,99.90
2019-03-06T02:50:50.148Z,99.90
2019-03-06T02:53:22.956Z,99.90
2019-03-06T02:55:55.886Z,99.90
2019-03-06T02:58:38.209Z,99.90
2019-03-06T03:01:23.991Z,99.90
2019-03-06T03:04:10.973Z,99.90
2019-03-06T03:06:47.929Z,99.90
2019-03-06T03:09:20.812Z,99.90
2019-03-06T03:11:53.774Z,99.90
2019-03-06T03:14:26.725Z,99.90
2019-03-06T03:16:59.940Z,99.90
2019-03-06T03:19:32.987Z,99.90
2019-03-06T03:22:06.367Z,99.90
2019-03-06T03:24:39.337Z,99.90
2019-03-06T03:27:12.163Z,99.90
2019-03-06T03:29:45.292Z,99.90
2019-03-06T03:32:18.318Z,99.90
2019-03-06T03:34:51.263Z,99.90
2019-03-06T03:37:24.169Z,99.90
2019-03-06T03:39:57.117Z,99.90
2019-03-06T03:42:30.209Z,99.90
2019-03-06T03:45:22.459Z,99.90
2019-03-06T03:47:55.529Z,99.90
2019-03-06T03:50:29.809Z,99.90
2019-03-06T03:53:02.619Z,99.90
2019-03-06T03:55:35.665Z,99.90
2019-03-06T03:58:08.627Z,99.90
2019-03-06T04:00:41.954Z,99.90
2019-03-06T04:03:15.027Z,99.90
2019-03-06T04:05:48.147Z,99.90
2019-03-06T04:08:20.999Z,99.90
2019-03-06T04:10:54.168Z,99.90
2019-03-06T04:13:27.118Z,99.90
2019-03-06T04:16:00.203Z,99.90
2019-03-06T04:18:32.992Z,99.90
2019-03-06T04:21:06.116Z,99.90
2019-03-06T04:23:39.202Z,99.90
2019-03-06T04:26:12.133Z,99.90
2019-03-06T04:28:45.378Z,99.90
2019-03-06T04:31:18.423Z,99.90
2019-03-06T04:33:51.543Z,99.90
2019-03-06T04:36:24.653Z,99.90
2019-03-06T04:38:57.473Z,99.90
2019-03-06T04:41:30.833Z,99.90
2019-03-06T04:44:03.656Z,99.90
2019-03-06T04:46:36.627Z,99.90
2019-03-06T04:49:09.707Z,99.90
2019-03-06T04:51:43.522Z,99.90
2019-03-06T04:54:16.373Z,99.90
2019-03-06T04:56:49.262Z,99.90
2019-03-06T04:59:22.108Z,99.90
2019-03-06T05:01:55.071Z,99.90
2019-03-06T05:04:28.155Z,99.90
2019-03-06T05:07:01.047Z,99.90
2019-03-06T05:09:33.974Z,99.90
2019-03-06T05:12:06.884Z,99.90
2019-03-06T05:14:39.723Z,99.90
2019-03-06T05:17:24.963Z,99.90
2019-03-06T05:19:58.168Z,99.90
2019-03-06T05:22:30.978Z,99.90
2019-03-06T05:25:03.999Z,99.90
2019-03-06T05:27:37.115Z,99.90
2019-03-06T05:30:10.104Z,99.90
2019-03-06T05:32:44.144Z,99.80
2019-03-06T05:35:37.847Z,99.80
2019-03-06T05:38:24.870Z,99.90
2019-03-06T05:40:57.784Z,99.90
2019-03-06T05:43:30.754Z,99.80
2019-03-06T05:46:03.905Z,99.80
2019-03-06T05:48:36.987Z,99.70
2019-03-06T05:51:09.839Z,99.80
2019-03-06T05:53:43.108Z,99.70
2019-03-06T05:56:16.276Z,99.60
2019-03-06T05:58:49.360Z,99.40
2019-03-06T06:01:22.468Z,99.40
2019-03-06T06:03:55.562Z,99.30
2019-03-06T06:06:28.622Z,99.30
2019-03-06T06:09:01.758Z,99.20
2019-03-06T06:11:36.718Z,99.10
2019-03-06T06:14:10.737Z,99.10
2019-03-06T06:16:43.698Z,99.00
2019-03-06T06:19:16.814Z,99.10
2019-03-06T06:22:11.383Z,99.10
2019-03-06T06:24:44.333Z,99.00
2019-03-06T06:27:17.605Z,98.90
2019-03-06T06:29:51.124Z,98.70
2019-03-06T06:32:24.215Z,98.70
2019-03-06T06:34:57.285Z,98.60
2019-03-06T06:37:30.413Z,98.90
2019-03-06T06:40:04.234Z,98.60
2019-03-06T06:42:37.320Z,98.40
2019-03-06T06:45:10.389Z,98.40
2019-03-06T06:48:12.276Z,98.50
2019-03-06T06:51:01.002Z,98.00
2019-03-06T06:53:38.589Z,98.00
2019-03-06T06:56:34.851Z,98.40
2019-03-06T06:59:32.564Z,98.00
2019-03-06T07:03:11.734Z,97.90
2019-03-06T07:05:56.650Z,97.80
2019-03-06T07:08:49.300Z,97.70
2019-03-06T07:11:45.453Z,97.50
2019-03-06T07:14:37.806Z,97.40
2019-03-06T07:17:35.512Z,97.40
2019-03-06T07:20:21.366Z,97.20
2019-03-06T07:23:13.804Z,97.30
2019-03-06T07:25:56.029Z,97.10
2019-03-06T07:28:39.328Z,96.70
2019-03-06T07:31:30.413Z,96.40
2019-03-06T07:34:26.076Z,96.40
2019-03-06T07:37:03.520Z,95.80
2019-03-06T07:40:02.551Z,95.90
2019-03-06T07:42:47.329Z,95.50
2019-03-06T07:46:06.654Z,95.70
2019-03-06T07:48:57.734Z,95.10
2019-03-06T07:51:50.139Z,95.00
2019-03-06T07:54:42.384Z,94.70
2019-03-06T07:57:32.995Z,94.50
2019-03-06T08:00:13.751Z,94.40
2019-03-06T08:03:26.880Z,94.30
2019-03-06T08:05:59.926Z,94.10
2019-03-06T08:08:32.835Z,93.90
2019-03-06T08:11:09.879Z,93.90
2019-03-06T08:13:48.377Z,93.60
2019-03-06T08:16:39.766Z,93.10
2019-03-06T08:19:19.363Z,92.80
2019-03-06T08:22:20.690Z,92.60
2019-03-06T08:25:16.214Z,92.70
2019-03-06T08:27:49.276Z,92.50
2019-03-06T08:30:23.425Z,92.20
2019-03-06T08:32:56.221Z,92.30
2019-03-06T08:35:29.161Z,92.00
2019-03-06T08:38:03.456Z,91.80
2019-03-06T08:40:36.376Z,91.90
2019-03-06T08:43:09.472Z,91.60
2019-03-06T08:46:08.041Z,91.40
2019-03-06T08:48:53.406Z,91.20
2019-03-06T08:51:36.582Z,91.00
2019-03-06T08:54:15.515Z,91.00
2019-03-06T08:57:14.120Z,90.60
2019-03-06T09:00:09.587Z,90.00
2019-03-06T09:03:04.711Z,90.10
2019-03-06T09:06:15.361Z,89.30
2019-03-06T09:09:06.531Z,88.80
2019-03-06T09:11:51.627Z,88.10
2019-03-06T09:14:44.526Z,87.40
2019-03-06T09:17:33.733Z,86.30
2019-03-06T09:20:23.986Z,85.40
2019-03-06T09:23:13.310Z,85.20
2019-03-06T09:26:02.375Z,83.80
2019-03-06T09:29:00.706Z,83.60
2019-03-06T09:31:42.760Z,82.60
2019-03-06T09:34:38.397Z,82.00
2019-03-06T09:37:34.405Z,81.00
2019-03-06T09:40:42.642Z,80.50
2019-03-06T09:43:41.893Z,81.10
2019-03-06T09:46:30.411Z,80.50
2019-03-06T09:49:22.057Z,80.10
2019-03-06T09:52:02.318Z,79.40
2019-03-06T09:54:55.421Z,79.30
2019-03-06T09:57:53.578Z,78.70
2019-03-06T10:00:39.344Z,78.60
2019-03-06T10:03:46.957Z,77.80
2019-03-06T10:06:39.442Z,77.60
2019-03-06T10:09:26.712Z,78.70
2019-03-06T10:12:11.668Z,78.20
2019-03-06T10:15:04.016Z,78.10
2019-03-06T10:17:55.740Z,77.10
2019-03-06T10:20:28.806Z,77.30
2019-03-06T10:23:01.708Z,76.60
2019-03-06T10:25:34.602Z,76.70
2019-03-06T10:28:07.673Z,76.70
2019-03-06T10:30:40.968Z,75.70
2019-03-06T10:33:13.898Z,75.00
2019-03-06T10:35:47.353Z,75.10
2019-03-06T10:38:20.469Z,74.70
2019-03-06T10:40:53.657Z,75.40
2019-03-06T10:43:26.618Z,75.00
2019-03-06T10:45:59.566Z,74.40
2019-03-06T10:48:32.796Z,74.30
2019-03-06T10:51:05.987Z,74.50
2019-03-06T10:53:41.764Z,73.90
2019-03-06T10:56:14.828Z,74.20
2019-03-06T10:58:47.834Z,74.00
2019-03-06T11:01:20.943Z,73.50
2019-03-06T11:04:07.126Z,72.60
2019-03-06T11:06:40.346Z,72.80
2019-03-06T11:09:13.450Z,72.90
2019-03-06T11:11:46.679Z,72.50
2019-03-06T11:14:21.029Z,72.80
2019-03-06T11:16:53.911Z,72.90
2019-03-06T11:19:27.235Z,73.00
2019-03-06T11:22:00.178Z,72.80
2019-03-06T11:24:33.045Z,72.80
2019-03-06T11:27:06.588Z,72.30
2019-03-06T11:29:39.702Z,72.50
2019-03-06T11:32:13.038Z,72.30
2019-03-06T11:34:46.048Z,71.90
2019-03-06T11:37:19.644Z,71.60
2019-03-06T11:39:52.867Z,70.90
2019-03-06T11:42:25.958Z,70.90
2019-03-06T11:44:59.268Z,70.50
2019-03-06T11:47:32.237Z,70.60
2019-03-06T11:50:06.227Z,70.60
2019-03-06T11:52:39.101Z,69.90
2019-03-06T11:55:12.470Z,69.90
2019-03-06T11:57:45.601Z,70.50
2019-03-06T12:00:27.660Z,70.50
2019-03-06T12:03:01.281Z,70.80
2019-03-06T12:05:40.719Z,70.50
2019-03-06T12:08:14.406Z,70.40
2019-03-06T12:10:47.502Z,70.70
2019-03-06T12:13:20.491Z,70.70
2019-03-06T12:15:53.580Z,70.00
2019-03-06T12:18:26.861Z,69.20
2019-03-06T12:21:00.325Z,69.80
2019-03-06T12:23:34.288Z,69.00
2019-03-06T12:26:07.543Z,69.40
2019-03-06T12:28:40.669Z,68.60
2019-03-06T12:31:13.584Z,69.10
2019-03-06T12:33:46.419Z,68.50
2019-03-06T12:36:19.309Z,68.40
2019-03-06T12:38:52.490Z,69.20
2019-03-06T12:41:25.508Z,68.50
2019-03-06T12:43:58.803Z,70.80
2019-03-06T12:46:31.984Z,72.10
2019-03-06T12:49:07.103Z,72.10
2019-03-06T12:51:40.308Z,73.40
2019-03-06T12:54:13.198Z,73.90
2019-03-06T12:56:46.561Z,74.70
2019-03-06T12:59:20.326Z,75.20
2019-03-06T13:01:53.310Z,76.00
2019-03-06T13:04:26.229Z,76.70
2019-03-06T13:06:59.391Z,77.90
2019-03-06T13:09:32.505Z,77.30
2019-03-06T13:12:05.915Z,79.00
2019-03-06T13:14:39.117Z,78.60
2019-03-06T13:17:12.436Z,80.10
2019-03-06T13:19:45.441Z,78.30
2019-03-06T13:22:18.379Z,78.40
2019-03-06T13:24:51.436Z,78.40
2019-03-06T13:27:24.437Z,78.10
2019-03-06T13:29:57.466Z,78.30
2019-03-06T13:32:42.348Z,77.00
2019-03-06T13:35:15.534Z,75.50
2019-03-06T13:37:48.785Z,75.60
2019-03-06T13:40:21.858Z,75.10
2019-03-06T13:42:54.950Z,75.30
2019-03-06T13:45:28.047Z,73.60
2019-03-06T13:48:01.915Z,73.50
2019-03-06T13:50:34.806Z,73.00
2019-03-06T13:53:08.231Z,73.60
2019-03-06T13:55:41.279Z,73.10
2019-03-06T13:58:14.214Z,73.00
2019-03-06T14:00:47.166Z,72.50
2019-03-06T14:03:19.940Z,72.80
2019-03-06T14:05:53.115Z,72.70
2019-03-06T14:08:26.229Z,73.10
2019-03-06T14:10:59.376Z,74.70
2019-03-06T14:13:32.402Z,73.00
2019-03-06T14:16:05.895Z,73.80
2019-03-06T14:18:39.372Z,73.20
2019-03-06T14:21:12.375Z,73.40
2019-03-06T14:23:45.328Z,73.20
2019-03-06T14:26:18.619Z,73.60
2019-03-06T14:28:51.836Z,73.80
2019-03-06T14:31:25.258Z,73.50
2019-03-06T14:33:58.152Z,73.70
2019-03-06T14:36:31.451Z,74.10
2019-03-06T14:39:21.532Z,75.10
2019-03-06T14:41:55.355Z,74.20
2019-03-06T14:44:28.373Z,74.80
2019-03-06T14:47:01.647Z,74.50
2019-03-06T14:49:34.632Z,74.70
2019-03-06T14:52:07.858Z,74.70
2019-03-06T14:54:40.882Z,74.80
2019-03-06T14:57:14.084Z,74.80
2019-03-06T14:59:47.225Z,75.00
2019-03-06T15:02:20.236Z,75.10
2019-03-06T15:04:53.437Z,75.20
2019-03-06T15:07:27.571Z,75.00
2019-03-06T15:10:00.525Z,75.20
2019-03-06T15:12:34.702Z,75.60
2019-03-06T15:15:09.832Z,75.00
2019-03-06T15:17:42.937Z,75.20
2019-03-06T15:20:17.137Z,75.50
2019-03-06T15:22:50.824Z,75.80
2019-03-06T15:25:23.771Z,75.60
2019-03-06T15:27:57.009Z,76.00
2019-03-06T15:30:29.945Z,75.90
2019-03-06T15:33:03.032Z,75.80
2019-03-06T15:35:37.069Z,76.10
2019-03-06T15:38:10.251Z,76.20
2019-03-06T15:40:43.374Z,76.50
2019-03-06T15:43:17.262Z,76.50
2019-03-06T15:45:50.421Z,76.50
2019-03-06T15:48:23.497Z,76.40
2019-03-06T15:50:56.443Z,76.40
2019-03-06T15:53:29.573Z,76.20
2019-03-06T15:56:02.947Z,76.40
2019-03-06T15:58:36.528Z,76.40
2019-03-06T16:01:09.602Z,76.30
2019-03-06T16:03:42.743Z,76.30
2019-03-06T16:06:20.419Z,76.40
2019-03-06T16:08:51.197Z,76.30
2019-03-06T16:11:24.362Z,76.50
2019-03-06T16:13:57.699Z,76.70
2019-03-06T16:16:30.872Z,76.50
2019-03-06T16:19:04.819Z,76.30
2019-03-06T16:21:37.947Z,76.10
2019-03-06T16:24:10.912Z,76.00
2019-03-06T16:26:44.026Z,75.20
2019-03-06T16:29:17.572Z,76.00
2019-03-06T16:31:50.369Z,75.60
2019-03-06T16:34:23.458Z,75.20
2019-03-06T16:36:56.686Z,75.10
2019-03-06T16:39:29.748Z,74.70
2019-03-06T16:42:02.789Z,73.70
2019-03-06T16:44:35.839Z,74.60
2019-03-06T16:47:09.003Z,74.20
2019-03-06T16:49:42.378Z,74.50
2019-03-06T16:52:15.552Z,74.50
2019-03-06T16:54:48.334Z,74.70
2019-03-06T16:57:21.364Z,75.10
2019-03-06T16:59:54.435Z,75.30
2019-03-06T17:02:28.078Z,76.30
2019-03-06T17:05:00.973Z,76.10
2019-03-06T17:07:35.194Z,76.50
2019-03-06T17:10:08.520Z,76.80
2019-03-06T17:12:41.868Z,76.70
2019-03-06T17:15:15.905Z,76.90
2019-03-06T17:17:49.086Z,77.20
2019-03-06T17:20:24.004Z,77.40
2019-03-06T17:22:57.829Z,77.80
2019-03-06T17:25:31.968Z,77.50
2019-03-06T17:28:05.280Z,78.50
2019-03-06T17:30:39.840Z,79.30
2019-03-06T17:33:13.723Z,80.10
2019-03-06T17:35:47.098Z,80.40
2019-03-06T17:38:20.060Z,80.60
2019-03-06T17:40:53.099Z,81.20
2019-03-06T17:43:26.178Z,81.50
2019-03-06T17:45:59.328Z,82.10
2019-03-06T17:48:32.250Z,82.80
2019-03-06T17:51:05.640Z,84.00
2019-03-06T17:53:38.626Z,85.90
2019-03-06T17:56:11.691Z,87.20
2019-03-06T17:58:44.759Z,88.70
2019-03-06T18:01:19.114Z,88.90
2019-03-06T18:04:02.949Z,89.30
2019-03-06T18:06:35.998Z,89.30
2019-03-06T18:09:09.079Z,89.30
2019-03-06T18:11:43.863Z,89.00
2019-03-06T18:14:17.114Z,89.10
2019-03-06T18:16:50.075Z,88.60
2019-03-06T18:19:23.173Z,88.50
2019-03-06T18:21:58.420Z,88.20
2019-03-06T18:24:31.762Z,88.40
2019-03-06T18:27:05.455Z,89.20
2019-03-06T18:29:38.483Z,90.20
2019-03-06T18:32:11.650Z,90.50
2019-03-06T18:34:44.745Z,91.00
2019-03-06T18:37:17.805Z,92.20
2019-03-06T18:39:51.159Z,92.20
2019-03-06T18:42:24.274Z,92.20
2019-03-06T18:44:57.151Z,92.30
2019-03-06T18:47:30.393Z,92.40
2019-03-06T18:50:04.234Z,92.20
2019-03-06T18:52:37.124Z,92.10
2019-03-06T18:55:10.256Z,92.30
2019-03-06T18:57:43.310Z,92.30
2019-03-06T19:00:18.309Z,92.00
2019-03-06T19:02:51.746Z,91.60
2019-03-06T19:05:24.799Z,91.60
2019-03-06T19:07:58.183Z,91.30
2019-03-06T19:10:32.340Z,91.20
2019-03-06T19:13:05.716Z,91.00
2019-03-06T19:15:39.090Z,91.10
2019-03-06T19:18:11.940Z,90.90
2019-03-06T19:20:45.111Z,91.00
2019-03-06T19:23:18.334Z,91.00
2019-03-06T19:25:51.576Z,91.10
2019-03-06T19:28:24.659Z,91.00
2019-03-06T19:30:57.944Z,91.00
2019-03-06T19:33:31.098Z,90.80
2019-03-06T19:36:04.110Z,90.80
2019-03-06T19:38:37.255Z,90.80
2019-03-06T19:41:10.335Z,91.00
2019-03-06T19:43:43.436Z,90.90
2019-03-06T19:46:18.949Z,90.70
2019-03-06T19:48:52.019Z,90.70
2019-03-06T19:51:26.046Z,90.80
2019-03-06T19:53:59.807Z,91.30
2019-03-06T19:56:32.920Z,90.60
2019-03-06T19:59:05.901Z,90.60
2019-03-06T20:01:39.226Z,90.70
2019-03-06T20:04:12.205Z,90.80
2019-03-06T20:06:45.399Z,90.60
2019-03-06T20:09:26.380Z,90.60
2019-03-06T20:11:59.515Z,90.60
2019-03-06T20:14:32.769Z,90.60
2019-03-06T20:17:05.886Z,90.70
2019-03-06T20:19:40.117Z,90.60
2019-03-06T20:22:13.237Z,91.20
2019-03-06T20:24:46.121Z,91.40
2019-03-06T20:27:19.171Z,91.10
2019-03-06T20:29:52.565Z,91.00
2019-03-06T20:32:25.768Z,90.80
2019-03-06T20:34:58.911Z,90.70
2019-03-06T20:37:32.410Z,90.70
2019-03-06T20:40:06.516Z,90.20
2019-03-06T20:42:39.870Z,90.30
2019-03-06T20:45:13.662Z,91.00
2019-03-06T20:47:46.832Z,91.70
2019-03-06T20:50:20.066Z,91.30
2019-03-06T20:52:57.870Z,91.30
2019-03-06T20:55:31.100Z,91.30
2019-03-06T20:58:04.455Z,92.60
2019-03-06T21:00:37.470Z,92.50
2019-03-06T21:03:10.906Z,93.00
2019-03-06T21:05:43.786Z,93.10
2019-03-06T21:08:17.198Z,93.60
2019-03-06T21:10:50.227Z,93.80
2019-03-06T21:13:23.236Z,93.90
2019-03-06T21:15:56.147Z,94.30
2019-03-06T21:18:29.118Z,94.50
2019-03-06T21:21:02.657Z,94.40
2019-03-06T21:23:36.438Z,94.70
2019-03-06T21:26:09.438Z,94.10
2019-03-06T21:28:42.679Z,94.20
2019-03-06T21:31:15.592Z,94.10
2019-03-06T21:33:48.855Z,94.10
2019-03-06T21:36:21.872Z,93.50
2019-03-06T21:38:55.097Z,93.70
2019-03-06T21:41:28.225Z,93.40
2019-03-06T21:44:01.523Z,93.70
2019-03-06T21:46:34.415Z,93.70
2019-03-06T21:49:07.506Z,93.90
2019-03-06T21:51:40.840Z,94.30
2019-03-06T21:54:13.875Z,94.20
2019-03-06T21:56:46.772Z,94.60
2019-03-06T21:59:20.105Z,94.70
2019-03-06T22:01:53.068Z,95.30
2019-03-06T22:04:26.038Z,95.70
2019-03-06T22:06:59.113Z,95.60
2019-03-06T22:09:32.142Z,95.70
2019-03-06T22:12:05.220Z,96.60
2019-03-06T22:14:39.147Z,96.50
2019-03-06T22:17:12.103Z,97.30
2019-03-06T22:19:45.573Z,97.60
2019-03-06T22:22:18.622Z,97.60
2019-03-06T22:24:51.556Z,97.90
2019-03-06T22:27:24.811Z,98.20
2019-03-06T22:29:58.094Z,98.30
2019-03-06T22:32:31.383Z,98.00
2019-03-06T22:35:04.735Z,98.00
2019-03-06T22:37:37.836Z,98.40
2019-03-06T22:40:12.261Z,98.30
2019-03-06T22:42:45.365Z,98.00
2019-03-06T22:45:18.780Z,98.40
2019-03-06T22:47:52.257Z,97.90
2019-03-06T22:50:25.363Z,97.40
2019-03-06T22:52:58.659Z,97.30
2019-03-06T22:55:31.421Z,97.10
2019-03-06T22:58:04.447Z,97.20
2019-03-06T23:01:10.952Z,96.90
2019-03-06T23:03:44.359Z,96.40
2019-03-06T23:06:18.433Z,95.50
2019-03-06T23:08:51.875Z,95.60
2019-03-06T23:11:24.917Z,95.50
2019-03-06T23:13:58.368Z,94.60
2019-03-06T23:16:31.459Z,94.80
2019-03-06T23:19:04.622Z,94.20
2019-03-06T23:21:37.697Z,94.50
2019-03-06T23:24:10.903Z,94.40
2019-03-06T23:26:43.913Z,94.70
2019-03-06T23:29:16.877Z,95.50
2019-03-06T23:31:50.543Z,95.90
2019-03-06T23:34:23.689Z,96.80
2019-03-06T23:36:56.728Z,97.60
2019-03-06T23:39:29.740Z,98.20
2019-03-06T23:42:03.325Z,98.60
2019-03-06T23:44:36.222Z,99.00
2019-03-06T23:47:09.234Z,99.10
2019-03-06T23:49:42.226Z,98.90
2019-03-06T23:52:22.613Z,99.20
2019-03-06T23:54:55.818Z,98.80
2019-03-06T23:57:28.688Z,98.70
